sensor_id;sensor_type;location;lat;lon;timestamp;pressure;altitude;pressure_sealevel;temperature;humidity
13027;BME280;6580;42.680;23.324;2022-12-31T00:01:23;96307.50;;;7.58;100.00
13027;BME280;6580;42.680;23.324;2022-12-31T00:03:51;96303.91;;;7.59;100.00
13027;BME280;6580;42.680;23.324;2022-12-31T00:06:22;96302.00;;;7.61;100.00
13027;BME280;6580;42.680;23.324;2022-12-31T00:08:52;96295.09;;;7.59;100.00
13027;BME280;6580;42.680;23.324;2022-12-31T00:11:20;96305.41;;;7.74;100.00
13027;BME280;6580;42.680;23.324;2022-12-31T00:13:52;96292.59;;;7.68;100.00
13027;BME280;6580;42.680;23.324;2022-12-31T00:16:21;96288.25;;;7.67;100.00
13027;BME280;6580;42.680;23.324;2022-12-31T00:18:56;96293.78;;;7.88;100.00
13027;BME280;6580;42.680;23.324;2022-12-31T00:21:26;96302.91;;;7.84;100.00
13027;BME280;6580;42.680;23.324;2022-12-31T00:23:55;96289.44;;;7.98;100.00
13027;BME280;6580;42.680;23.324;2022-12-31T00:26:24;96295.47;;;8.00;100.00
13027;BME280;6580;42.680;23.324;2022-12-31T00:28:55;96304.53;;;7.97;100.00
13027;BME280;6580;42.680;23.324;2022-12-31T00:31:24;96308.97;;;7.97;100.00
13027;BME280;6580;42.680;23.324;2022-12-31T00:33:51;96302.59;;;7.99;100.00
13027;BME280;6580;42.680;23.324;2022-12-31T00:36:20;96316.91;;;8.20;100.00
13027;BME280;6580;42.680;23.324;2022-12-31T00:38:48;96320.97;;;8.13;100.00
13027;BME280;6580;42.680;23.324;2022-12-31T00:41:18;96319.31;;;8.23;100.00
13027;BME280;6580;42.680;23.324;2022-12-31T00:43:46;96330.44;;;8.28;100.00
13027;BME280;6580;42.680;23.324;2022-12-31T00:46:13;96335.41;;;8.09;100.00
13027;BME280;6580;42.680;23.324;2022-12-31T00:48:41;96322.22;;;7.86;100.00
13027;BME280;6580;42.680;23.324;2022-12-31T00:51:09;96334.66;;;7.96;100.00
13027;BME280;6580;42.680;23.324;2022-12-31T00:53:37;96337.78;;;7.90;100.00
13027;BME280;6580;42.680;23.324;2022-12-31T00:56:12;96333.66;;;7.86;100.00
13027;BME280;6580;42.680;23.324;2022-12-31T00:58:42;96331.56;;;7.79;100.00
13027;BME280;6580;42.680;23.324;2022-12-31T01:01:10;96343.09;;;7.67;100.00
13027;BME280;6580;42.680;23.324;2022-12-31T01:03:39;96337.41;;;7.60;100.00
13027;BME280;6580;42.680;23.324;2022-12-31T01:06:06;96344.09;;;7.53;100.00
13027;BME280;6580;42.680;23.324;2022-12-31T01:08:33;96346.34;;;7.70;100.00
13027;BME280;6580;42.680;23.324;2022-12-31T01:11:01;96345.19;;;7.74;100.00
13027;BME280;6580;42.680;23.324;2022-12-31T01:13:53;96343.72;;;7.70;100.00
13027;BME280;6580;42.680;23.324;2022-12-31T01:16:24;96341.66;;;7.74;100.00
13027;BME280;6580;42.680;23.324;2022-12-31T01:18:57;96353.69;;;7.67;100.00
13027;BME280;6580;42.680;23.324;2022-12-31T01:21:25;96356.91;;;7.59;100.00
13027;BME280;6580;42.680;23.324;2022-12-31T01:23:53;96362.78;;;7.52;100.00
13027;BME280;6580;42.680;23.324;2022-12-31T01:26:21;96357.38;;;7.53;100.00
13027;BME280;6580;42.680;23.324;2022-12-31T01:28:49;96354.13;;;7.37;100.00
13027;BME280;6580;42.680;23.324;2022-12-31T01:31:21;96352.09;;;7.41;100.00
13027;BME280;6580;42.680;23.324;2022-12-31T01:33:48;96356.63;;;7.51;100.00
13027;BME280;6580;42.680;23.324;2022-12-31T01:36:18;96353.88;;;7.53;100.00
13027;BME280;6580;42.680;23.324;2022-12-31T01:38:50;96354.94;;;7.50;100.00
13027;BME280;6580;42.680;23.324;2022-12-31T01:41:21;96356.69;;;7.62;100.00
13027;BME280;6580;42.680;23.324;2022-12-31T01:43:53;96344.28;;;7.39;100.00
13027;BME280;6580;42.680;23.324;2022-12-31T01:46:28;96362.66;;;7.30;100.00
13027;BME280;6580;42.680;23.324;2022-12-31T01:49:02;96348.84;;;7.02;100.00
13027;BME280;6580;42.680;23.324;2022-12-31T01:51:32;96357.69;;;7.25;100.00
13027;BME280;6580;42.680;23.324;2022-12-31T01:54:01;96352.09;;;7.17;100.00
13027;BME280;6580;42.680;23.324;2022-12-31T01:56:29;96365.50;;;7.27;100.00
13027;BME280;6580;42.680;23.324;2022-12-31T01:58:57;96364.59;;;7.15;100.00
13027;BME280;6580;42.680;23.324;2022-12-31T02:01:28;96367.91;;;7.06;100.00
13027;BME280;6580;42.680;23.324;2022-12-31T02:03:56;96368.09;;;7.16;100.00
13027;BME280;6580;42.680;23.324;2022-12-31T02:06:28;96371.72;;;7.03;100.00
13027;BME280;6580;42.680;23.324;2022-12-31T02:08:58;96367.22;;;7.15;100.00
13027;BME280;6580;42.680;23.324;2022-12-31T02:11:29;96367.03;;;7.18;100.00
13027;BME280;6580;42.680;23.324;2022-12-31T02:14:04;96377.88;;;7.39;100.00
13027;BME280;6580;42.680;23.324;2022-12-31T02:16:44;96374.66;;;7.10;100.00
13027;BME280;6580;42.680;23.324;2022-12-31T02:22:36;96380.22;;;6.83;100.00
13027;BME280;6580;42.680;23.324;2022-12-31T02:25:29;96374.06;;;6.95;100.00
13027;BME280;6580;42.680;23.324;2022-12-31T02:28:09;96370.44;;;6.96;100.00
13027;BME280;6580;42.680;23.324;2022-12-31T02:30:44;96374.47;;;7.01;100.00
13027;BME280;6580;42.680;23.324;2022-12-31T02:33:20;96380.19;;;7.07;100.00
13027;BME280;6580;42.680;23.324;2022-12-31T02:35:52;96381.25;;;6.93;100.00
13027;BME280;6580;42.680;23.324;2022-12-31T02:38:25;96388.22;;;7.18;100.00
13027;BME280;6580;42.680;23.324;2022-12-31T02:40:59;96388.09;;;7.20;100.00
13027;BME280;6580;42.680;23.324;2022-12-31T02:43:27;96391.22;;;7.02;100.00
13027;BME280;6580;42.680;23.324;2022-12-31T02:46:03;96374.50;;;6.89;100.00
13027;BME280;6580;42.680;23.324;2022-12-31T02:48:39;96395.34;;;6.93;100.00
13027;BME280;6580;42.680;23.324;2022-12-31T02:51:18;96395.91;;;6.86;100.00
13027;BME280;6580;42.680;23.324;2022-12-31T02:54:10;96391.84;;;6.93;100.00
13027;BME280;6580;42.680;23.324;2022-12-31T02:56:42;96398.75;;;6.83;100.00
13027;BME280;6580;42.680;23.324;2022-12-31T02:59:17;96394.41;;;6.82;100.00
13027;BME280;6580;42.680;23.324;2022-12-31T03:02:10;96391.44;;;6.86;100.00
13027;BME280;6580;42.680;23.324;2022-12-31T03:04:46;96392.09;;;6.90;100.00
13027;BME280;6580;42.680;23.324;2022-12-31T03:07:19;96390.59;;;6.86;100.00
13027;BME280;6580;42.680;23.324;2022-12-31T03:09:46;96385.84;;;6.91;100.00
13027;BME280;6580;42.680;23.324;2022-12-31T03:12:14;96381.31;;;6.68;100.00
13027;BME280;6580;42.680;23.324;2022-12-31T03:15:01;96385.97;;;6.52;100.00
13027;BME280;6580;42.680;23.324;2022-12-31T03:17:32;96375.66;;;6.47;100.00
13027;BME280;6580;42.680;23.324;2022-12-31T03:20:00;96376.75;;;6.70;100.00
13027;BME280;6580;42.680;23.324;2022-12-31T03:22:45;96380.03;;;6.61;100.00
13027;BME280;6580;42.680;23.324;2022-12-31T03:25:16;96380.75;;;6.50;100.00
13027;BME280;6580;42.680;23.324;2022-12-31T03:28:01;96372.50;;;6.80;100.00
13027;BME280;6580;42.680;23.324;2022-12-31T03:30:29;96384.25;;;6.76;100.00
13027;BME280;6580;42.680;23.324;2022-12-31T03:32:59;96383.50;;;6.74;100.00
13027;BME280;6580;42.680;23.324;2022-12-31T03:35:28;96390.19;;;6.67;100.00
13027;BME280;6580;42.680;23.324;2022-12-31T03:37:57;96382.66;;;6.61;100.00
13027;BME280;6580;42.680;23.324;2022-12-31T03:40:26;96377.28;;;6.50;100.00
13027;BME280;6580;42.680;23.324;2022-12-31T03:42:56;96384.47;;;6.48;100.00
13027;BME280;6580;42.680;23.324;2022-12-31T03:45:24;96384.28;;;6.51;100.00
13027;BME280;6580;42.680;23.324;2022-12-31T03:47:51;96397.72;;;6.48;100.00
13027;BME280;6580;42.680;23.324;2022-12-31T03:50:21;96395.66;;;6.39;100.00
13027;BME280;6580;42.680;23.324;2022-12-31T03:52:48;96402.13;;;6.47;100.00
13027;BME280;6580;42.680;23.324;2022-12-31T03:55:18;96414.41;;;6.48;100.00
13027;BME280;6580;42.680;23.324;2022-12-31T03:57:45;96395.91;;;6.36;100.00
13027;BME280;6580;42.680;23.324;2022-12-31T04:00:15;96402.56;;;6.29;100.00
13027;BME280;6580;42.680;23.324;2022-12-31T04:02:44;96407.53;;;6.33;100.00
13027;BME280;6580;42.680;23.324;2022-12-31T04:05:11;96404.97;;;6.19;100.00
13027;BME280;6580;42.680;23.324;2022-12-31T04:07:41;96405.28;;;6.15;100.00
13027;BME280;6580;42.680;23.324;2022-12-31T04:10:11;96401.88;;;6.01;100.00
13027;BME280;6580;42.680;23.324;2022-12-31T04:12:41;96406.16;;;6.28;100.00
13027;BME280;6580;42.680;23.324;2022-12-31T04:15:15;96411.28;;;6.04;100.00
13027;BME280;6580;42.680;23.324;2022-12-31T04:17:44;96419.53;;;6.12;100.00
13027;BME280;6580;42.680;23.324;2022-12-31T04:20:14;96418.47;;;6.03;100.00
13027;BME280;6580;42.680;23.324;2022-12-31T04:22:43;96418.03;;;5.96;100.00
13027;BME280;6580;42.680;23.324;2022-12-31T04:25:11;96416.34;;;5.95;100.00
13027;BME280;6580;42.680;23.324;2022-12-31T04:27:39;96413.69;;;5.95;100.00
13027;BME280;6580;42.680;23.324;2022-12-31T04:30:09;96414.84;;;5.91;100.00
13027;BME280;6580;42.680;23.324;2022-12-31T04:32:36;96423.69;;;6.16;100.00
13027;BME280;6580;42.680;23.324;2022-12-31T04:35:10;96419.47;;;6.14;100.00
13027;BME280;6580;42.680;23.324;2022-12-31T04:37:37;96409.41;;;6.06;100.00
13027;BME280;6580;42.680;23.324;2022-12-31T04:40:07;96439.66;;;6.15;100.00
13027;BME280;6580;42.680;23.324;2022-12-31T04:42:35;96443.19;;;5.89;100.00
13027;BME280;6580;42.680;23.324;2022-12-31T04:45:06;96421.69;;;5.81;100.00
13027;BME280;6580;42.680;23.324;2022-12-31T04:47:34;96429.00;;;5.90;100.00
13027;BME280;6580;42.680;23.324;2022-12-31T04:50:01;96436.00;;;5.91;100.00
13027;BME280;6580;42.680;23.324;2022-12-31T04:52:28;96443.34;;;6.00;100.00
13027;BME280;6580;42.680;23.324;2022-12-31T04:54:56;96441.66;;;5.85;100.00
13027;BME280;6580;42.680;23.324;2022-12-31T04:57:28;96437.91;;;5.75;100.00
13027;BME280;6580;42.680;23.324;2022-12-31T04:59:55;96444.44;;;5.84;100.00
13027;BME280;6580;42.680;23.324;2022-12-31T05:02:22;96448.38;;;5.77;100.00
13027;BME280;6580;42.680;23.324;2022-12-31T05:04:49;96452.47;;;5.82;100.00
13027;BME280;6580;42.680;23.324;2022-12-31T05:07:16;96453.50;;;5.80;100.00
13027;BME280;6580;42.680;23.324;2022-12-31T05:09:43;96458.94;;;5.77;100.00
13027;BME280;6580;42.680;23.324;2022-12-31T05:12:12;96450.19;;;5.76;100.00
13027;BME280;6580;42.680;23.324;2022-12-31T05:14:41;96464.13;;;5.92;100.00
13027;BME280;6580;42.680;23.324;2022-12-31T05:17:08;96456.59;;;5.72;100.00
13027;BME280;6580;42.680;23.324;2022-12-31T05:19:35;96458.94;;;5.77;100.00
13027;BME280;6580;42.680;23.324;2022-12-31T05:22:04;96472.88;;;5.93;100.00
13027;BME280;6580;42.680;23.324;2022-12-31T05:24:48;96476.91;;;6.12;100.00
13027;BME280;6580;42.680;23.324;2022-12-31T05:27:17;96479.38;;;6.01;100.00
13027;BME280;6580;42.680;23.324;2022-12-31T05:29:47;96481.78;;;5.92;100.00
13027;BME280;6580;42.680;23.324;2022-12-31T05:32:14;96466.81;;;5.78;100.00
13027;BME280;6580;42.680;23.324;2022-12-31T05:34:41;96487.75;;;5.67;100.00
13027;BME280;6580;42.680;23.324;2022-12-31T05:37:08;96496.75;;;5.65;100.00
13027;BME280;6580;42.680;23.324;2022-12-31T05:39:38;96488.13;;;5.75;100.00
13027;BME280;6580;42.680;23.324;2022-12-31T05:42:05;96491.59;;;5.76;100.00
13027;BME280;6580;42.680;23.324;2022-12-31T05:44:32;96477.75;;;5.72;100.00
13027;BME280;6580;42.680;23.324;2022-12-31T05:47:00;96482.78;;;5.63;100.00
13027;BME280;6580;42.680;23.324;2022-12-31T05:49:27;96495.00;;;5.92;100.00
13027;BME280;6580;42.680;23.324;2022-12-31T05:51:56;96481.91;;;5.76;100.00
13027;BME280;6580;42.680;23.324;2022-12-31T05:54:22;96495.69;;;5.67;100.00
13027;BME280;6580;42.680;23.324;2022-12-31T05:56:50;96487.75;;;5.67;100.00
13027;BME280;6580;42.680;23.324;2022-12-31T05:59:17;96496.66;;;5.80;100.00
13027;BME280;6580;42.680;23.324;2022-12-31T06:01:44;96496.75;;;5.65;100.00
13027;BME280;6580;42.680;23.324;2022-12-31T06:04:17;96501.38;;;5.61;100.00
13027;BME280;6580;42.680;23.324;2022-12-31T06:06:46;96512.34;;;5.55;100.00
13027;BME280;6580;42.680;23.324;2022-12-31T06:09:16;96512.34;;;5.55;100.00
13027;BME280;6580;42.680;23.324;2022-12-31T06:11:44;96502.31;;;5.60;100.00
13027;BME280;6580;42.680;23.324;2022-12-31T06:14:13;96498.06;;;5.58;100.00
13027;BME280;6580;42.680;23.324;2022-12-31T06:16:41;96501.16;;;5.64;100.00
13027;BME280;6580;42.680;23.324;2022-12-31T06:19:08;96506.44;;;5.64;100.00
13027;BME280;6580;42.680;23.324;2022-12-31T06:21:36;96509.00;;;5.66;100.00
13027;BME280;6580;42.680;23.324;2022-12-31T06:24:04;96519.09;;;5.73;100.00
13027;BME280;6580;42.680;23.324;2022-12-31T06:26:32;96520.00;;;5.46;100.00
13027;BME280;6580;42.680;23.324;2022-12-31T06:29:00;96528.56;;;5.49;100.00
13027;BME280;6580;42.680;23.324;2022-12-31T06:31:31;96531.59;;;5.57;100.00
13027;BME280;6580;42.680;23.324;2022-12-31T06:33:59;96529.03;;;5.70;100.00
13027;BME280;6580;42.680;23.324;2022-12-31T06:36:27;96531.34;;;5.88;100.00
13027;BME280;6580;42.680;23.324;2022-12-31T06:38:56;96533.94;;;5.90;100.00
13027;BME280;6580;42.680;23.324;2022-12-31T06:41:26;96542.88;;;5.87;100.00
13027;BME280;6580;42.680;23.324;2022-12-31T06:43:53;96545.72;;;5.84;100.00
13027;BME280;6580;42.680;23.324;2022-12-31T06:46:20;96547.41;;;5.85;100.00
13027;BME280;6580;42.680;23.324;2022-12-31T06:48:50;96551.00;;;5.84;100.00
13027;BME280;6580;42.680;23.324;2022-12-31T06:51:20;96547.81;;;5.79;100.00
13027;BME280;6580;42.680;23.324;2022-12-31T06:53:49;96550.81;;;5.87;100.00
13027;BME280;6580;42.680;23.324;2022-12-31T06:56:22;96553.41;;;6.01;100.00
13027;BME280;6580;42.680;23.324;2022-12-31T06:58:50;96554.78;;;6.20;100.00
13027;BME280;6580;42.680;23.324;2022-12-31T07:04:40;96558.75;;;6.27;100.00
13027;BME280;6580;42.680;23.324;2022-12-31T07:07:15;96561.97;;;6.45;100.00
13027;BME280;6580;42.680;23.324;2022-12-31T07:09:50;96562.56;;;6.62;100.00
13027;BME280;6580;42.680;23.324;2022-12-31T07:12:34;96564.91;;;6.67;100.00
13027;BME280;6580;42.680;23.324;2022-12-31T07:15:04;96568.28;;;6.69;100.00
13027;BME280;6580;42.680;23.324;2022-12-31T07:17:42;96564.25;;;6.63;100.00
13027;BME280;6580;42.680;23.324;2022-12-31T07:20:16;96558.09;;;6.63;100.00
13027;BME280;6580;42.680;23.324;2022-12-31T07:22:44;96573.50;;;6.83;100.00
13027;BME280;6580;42.680;23.324;2022-12-31T07:25:14;96575.88;;;7.00;100.00
13027;BME280;6580;42.680;23.324;2022-12-31T07:27:52;96574.31;;;7.09;100.00
13027;BME280;6580;42.680;23.324;2022-12-31T07:30:23;96569.81;;;6.98;100.00
13027;BME280;6580;42.680;23.324;2022-12-31T07:33:15;96569.00;;;7.09;100.00
13027;BME280;6580;42.680;23.324;2022-12-31T07:36:08;96582.97;;;7.24;100.00
13027;BME280;6580;42.680;23.324;2022-12-31T07:38:44;96573.25;;;7.24;100.00
13027;BME280;6580;42.680;23.324;2022-12-31T07:41:20;96573.03;;;7.40;100.00
13027;BME280;6580;42.680;23.324;2022-12-31T07:44:01;96574.50;;;7.44;100.00
13027;BME280;6580;42.680;23.324;2022-12-31T07:46:42;96585.94;;;7.69;100.00
13027;BME280;6580;42.680;23.324;2022-12-31T07:49:17;96581.50;;;7.70;100.00
13027;BME280;6580;42.680;23.324;2022-12-31T07:51:45;96587.97;;;7.78;100.00
13027;BME280;6580;42.680;23.324;2022-12-31T07:54:12;96574.59;;;7.67;100.00
13027;BME280;6580;42.680;23.324;2022-12-31T07:56:38;96590.34;;;7.94;100.00
13027;BME280;6580;42.680;23.324;2022-12-31T07:59:18;96599.94;;;7.96;100.00
13027;BME280;6580;42.680;23.324;2022-12-31T08:01:55;96598.44;;;8.17;100.00
13027;BME280;6580;42.680;23.324;2022-12-31T08:04:27;96589.94;;;8.00;100.00
13027;BME280;6580;42.680;23.324;2022-12-31T08:07:05;96583.34;;;7.93;100.00
13027;BME280;6580;42.680;23.324;2022-12-31T08:09:41;96589.28;;;8.08;100.00
13027;BME280;6580;42.680;23.324;2022-12-31T08:12:12;96589.38;;;8.07;100.00
13027;BME280;6580;42.680;23.324;2022-12-31T08:14:44;96590.88;;;8.11;100.00
13027;BME280;6580;42.680;23.324;2022-12-31T08:17:14;96586.31;;;8.25;100.00
13027;BME280;6580;42.680;23.324;2022-12-31T08:19:44;96585.97;;;8.30;99.24
13027;BME280;6580;42.680;23.324;2022-12-31T08:22:34;96585.41;;;8.37;97.95
13027;BME280;6580;42.680;23.324;2022-12-31T08:25:15;96589.63;;;8.40;98.88
13027;BME280;6580;42.680;23.324;2022-12-31T08:27:51;96586.13;;;8.63;97.53
13027;BME280;6580;42.680;23.324;2022-12-31T08:30:27;96583.81;;;8.82;96.42
13027;BME280;6580;42.680;23.324;2022-12-31T08:33:06;96585.31;;;8.97;95.67
13027;BME280;6580;42.680;23.324;2022-12-31T08:35:47;96588.75;;;9.09;94.38
13027;BME280;6580;42.680;23.324;2022-12-31T08:38:25;96591.94;;;9.25;93.64
13027;BME280;6580;42.680;23.324;2022-12-31T08:41:03;96589.59;;;9.44;91.82
13027;BME280;6580;42.680;23.324;2022-12-31T08:43:43;96586.19;;;9.42;90.95
13027;BME280;6580;42.680;23.324;2022-12-31T08:46:28;96586.41;;;9.39;90.72
13027;BME280;6580;42.680;23.324;2022-12-31T08:48:57;96588.50;;;9.58;89.97
13027;BME280;6580;42.680;23.324;2022-12-31T08:51:26;96576.75;;;9.49;88.42
13027;BME280;6580;42.680;23.324;2022-12-31T08:53:53;96583.44;;;9.66;87.18
13027;BME280;6580;42.680;23.324;2022-12-31T08:56:26;96578.84;;;9.68;86.43
13027;BME280;6580;42.680;23.324;2022-12-31T08:59:06;96573.88;;;9.74;85.96
13027;BME280;6580;42.680;23.324;2022-12-31T09:01:51;96553.69;;;9.83;85.67
13027;BME280;6580;42.680;23.324;2022-12-31T09:04:24;96558.19;;;9.82;85.28
13027;BME280;6580;42.680;23.324;2022-12-31T09:06:57;96555.16;;;9.87;85.02
13027;BME280;6580;42.680;23.324;2022-12-31T09:09:34;96556.81;;;9.99;85.03
13027;BME280;6580;42.680;23.324;2022-12-31T09:12:11;96564.00;;;10.09;84.44
13027;BME280;6580;42.680;23.324;2022-12-31T09:14:43;96563.75;;;10.12;83.19
13027;BME280;6580;42.680;23.324;2022-12-31T09:20:13;96562.72;;;10.46;80.97
13027;BME280;6580;42.680;23.324;2022-12-31T09:22:42;96563.81;;;10.43;81.90
13027;BME280;6580;42.680;23.324;2022-12-31T09:25:12;96557.09;;;10.60;80.88
13027;BME280;6580;42.680;23.324;2022-12-31T09:27:45;96555.50;;;10.68;79.56
13027;BME280;6580;42.680;23.324;2022-12-31T09:30:15;96550.31;;;10.67;78.82
13027;BME280;6580;42.680;23.324;2022-12-31T09:32:51;96537.16;;;10.54;79.15
13027;BME280;6580;42.680;23.324;2022-12-31T09:35:30;96538.44;;;10.60;79.35
13027;BME280;6580;42.680;23.324;2022-12-31T09:38:02;96541.34;;;10.68;79.24
13027;BME280;6580;42.680;23.324;2022-12-31T09:40:49;96526.28;;;10.78;79.63
13027;BME280;6580;42.680;23.324;2022-12-31T09:43:54;96518.44;;;10.65;79.58
13027;BME280;6580;42.680;23.324;2022-12-31T09:47:08;96511.41;;;10.75;79.19
13027;BME280;6580;42.680;23.324;2022-12-31T09:53:11;96511.22;;;10.88;77.36
13027;BME280;6580;42.680;23.324;2022-12-31T09:55:50;96501.22;;;11.01;76.80
13027;BME280;6580;42.680;23.324;2022-12-31T09:58:31;96507.38;;;11.01;75.64
13027;BME280;6580;42.680;23.324;2022-12-31T10:01:03;96499.41;;;11.21;76.83
13027;BME280;6580;42.680;23.324;2022-12-31T10:03:53;96491.38;;;11.21;75.32
13027;BME280;6580;42.680;23.324;2022-12-31T10:06:26;96489.63;;;11.31;74.54
13027;BME280;6580;42.680;23.324;2022-12-31T10:09:24;96484.47;;;11.39;74.32
13027;BME280;6580;42.680;23.324;2022-12-31T10:12:05;96488.16;;;11.68;73.49
13027;BME280;6580;42.680;23.324;2022-12-31T10:14:46;96487.09;;;11.80;72.44
13027;BME280;6580;42.680;23.324;2022-12-31T10:17:24;96485.41;;;11.79;71.73
13027;BME280;6580;42.680;23.324;2022-12-31T10:20:12;96479.88;;;11.71;72.20
13027;BME280;6580;42.680;23.324;2022-12-31T10:25:46;96466.09;;;11.66;72.17
13027;BME280;6580;42.680;23.324;2022-12-31T10:28:25;96471.22;;;12.84;68.42
13027;BME280;6580;42.680;23.324;2022-12-31T10:31:11;96447.34;;;14.11;63.17
13027;BME280;6580;42.680;23.324;2022-12-31T10:33:44;96448.91;;;15.10;56.17
13027;BME280;6580;42.680;23.324;2022-12-31T10:36:31;96443.13;;;15.98;53.42
13027;BME280;6580;42.680;23.324;2022-12-31T10:39:17;96437.00;;;16.95;49.74
13027;BME280;6580;42.680;23.324;2022-12-31T10:42:11;96437.88;;;17.43;46.93
13027;BME280;6580;42.680;23.324;2022-12-31T10:48:36;96435.03;;;18.75;43.44
13027;BME280;6580;42.680;23.324;2022-12-31T10:51:38;96423.91;;;18.48;42.93
13027;BME280;6580;42.680;23.324;2022-12-31T10:54:36;96420.06;;;19.18;42.05
13027;BME280;6580;42.680;23.324;2022-12-31T11:00:15;96412.16;;;21.04;38.42
13027;BME280;6580;42.680;23.324;2022-12-31T11:09:43;96415.22;;;21.01;38.14
13027;BME280;6580;42.680;23.324;2022-12-31T11:12:29;96403.78;;;21.95;36.26
13027;BME280;6580;42.680;23.324;2022-12-31T11:15:22;96390.78;;;23.18;33.76
13027;BME280;6580;42.680;23.324;2022-12-31T11:18:01;96394.00;;;22.88;33.58
13027;BME280;6580;42.680;23.324;2022-12-31T11:20:57;96397.66;;;23.08;33.53
13027;BME280;6580;42.680;23.324;2022-12-31T11:23:38;96381.97;;;23.23;32.98
13027;BME280;6580;42.680;23.324;2022-12-31T11:26:18;96370.69;;;23.32;32.85
13027;BME280;6580;42.680;23.324;2022-12-31T11:29:15;96379.25;;;23.10;33.06
13027;BME280;6580;42.680;23.324;2022-12-31T11:32:00;96384.50;;;23.37;32.93
13027;BME280;6580;42.680;23.324;2022-12-31T11:34:56;96386.41;;;24.01;32.34
13027;BME280;6580;42.680;23.324;2022-12-31T11:37:32;96382.50;;;24.41;31.77
13027;BME280;6580;42.680;23.324;2022-12-31T11:40:18;96373.91;;;24.44;31.44
13027;BME280;6580;42.680;23.324;2022-12-31T11:42:53;96371.50;;;24.73;31.23
13027;BME280;6580;42.680;23.324;2022-12-31T11:45:41;96364.41;;;25.03;29.94
13027;BME280;6580;42.680;23.324;2022-12-31T11:48:15;96357.19;;;26.19;28.83
13027;BME280;6580;42.680;23.324;2022-12-31T11:50:52;96355.19;;;26.08;28.59
13027;BME280;6580;42.680;23.324;2022-12-31T11:53:33;96351.72;;;24.84;29.67
13027;BME280;6580;42.680;23.324;2022-12-31T11:56:11;96353.09;;;24.69;29.82
13027;BME280;6580;42.680;23.324;2022-12-31T11:58:45;96337.06;;;24.79;29.76
13027;BME280;6580;42.680;23.324;2022-12-31T12:01:17;96353.47;;;24.72;30.07
13027;BME280;6580;42.680;23.324;2022-12-31T12:03:46;96360.19;;;25.07;29.65
13027;BME280;6580;42.680;23.324;2022-12-31T12:06:15;96359.44;;;25.56;29.59
13027;BME280;6580;42.680;23.324;2022-12-31T12:08:43;96367.41;;;24.45;30.97
13027;BME280;6580;42.680;23.324;2022-12-31T12:11:16;96364.72;;;24.89;30.14
13027;BME280;6580;42.680;23.324;2022-12-31T12:13:44;96363.31;;;24.73;30.15
13027;BME280;6580;42.680;23.324;2022-12-31T12:16:20;96367.22;;;24.90;29.92
13027;BME280;6580;42.680;23.324;2022-12-31T12:19:01;96359.31;;;25.44;29.52
13027;BME280;6580;42.680;23.324;2022-12-31T12:21:29;96367.81;;;25.61;29.42
13027;BME280;6580;42.680;23.324;2022-12-31T12:24:02;96362.63;;;26.01;28.21
13027;BME280;6580;42.680;23.324;2022-12-31T12:26:34;96355.41;;;25.34;29.02
13027;BME280;6580;42.680;23.324;2022-12-31T12:29:08;96365.53;;;24.46;30.27
13027;BME280;6580;42.680;23.324;2022-12-31T12:31:53;96359.19;;;25.33;29.31
13027;BME280;6580;42.680;23.324;2022-12-31T12:34:24;96369.91;;;25.59;28.92
13027;BME280;6580;42.680;23.324;2022-12-31T12:36:53;96370.78;;;25.77;28.65
13027;BME280;6580;42.680;23.324;2022-12-31T12:39:25;96368.69;;;24.93;29.33
13027;BME280;6580;42.680;23.324;2022-12-31T12:42:02;96364.75;;;25.20;29.74
13027;BME280;6580;42.680;23.324;2022-12-31T12:44:35;96374.31;;;24.48;30.25
13027;BME280;6580;42.680;23.324;2022-12-31T12:47:05;96374.78;;;24.38;30.56
13027;BME280;6580;42.680;23.324;2022-12-31T12:49:37;96375.28;;;24.72;29.89
13027;BME280;6580;42.680;23.324;2022-12-31T12:52:38;96377.41;;;24.64;30.73
13027;BME280;6580;42.680;23.324;2022-12-31T12:55:16;96374.56;;;24.46;31.14
13027;BME280;6580;42.680;23.324;2022-12-31T12:57:52;96373.66;;;23.82;31.49
13027;BME280;6580;42.680;23.324;2022-12-31T13:00:21;96369.44;;;23.67;31.73
13027;BME280;6580;42.680;23.324;2022-12-31T13:03:05;96373.22;;;23.47;32.42
13027;BME280;6580;42.680;23.324;2022-12-31T13:05:47;96386.16;;;23.19;33.10
13027;BME280;6580;42.680;23.324;2022-12-31T13:08:28;96366.53;;;23.43;32.33
13027;BME280;6580;42.680;23.324;2022-12-31T13:11:26;96382.00;;;23.29;32.25
13027;BME280;6580;42.680;23.324;2022-12-31T13:14:02;96381.78;;;23.44;32.05
13027;BME280;6580;42.680;23.324;2022-12-31T13:16:36;96380.66;;;23.06;32.44
13027;BME280;6580;42.680;23.324;2022-12-31T13:19:14;96399.16;;;20.64;36.63
13027;BME280;6580;42.680;23.324;2022-12-31T13:21:51;96403.56;;;19.49;38.95
13027;BME280;6580;42.680;23.324;2022-12-31T13:24:31;96406.63;;;18.57;40.77
13027;BME280;6580;42.680;23.324;2022-12-31T13:27:08;96408.78;;;17.93;42.50
13027;BME280;6580;42.680;23.324;2022-12-31T13:29:43;96407.22;;;17.44;43.93
13027;BME280;6580;42.680;23.324;2022-12-31T13:32:16;96425.56;;;17.01;45.62
13027;BME280;6580;42.680;23.324;2022-12-31T13:34:48;96422.19;;;16.83;46.70
13027;BME280;6580;42.680;23.324;2022-12-31T13:37:24;96423.03;;;16.83;47.52
13027;BME280;6580;42.680;23.324;2022-12-31T13:39:56;96427.53;;;16.51;48.52
13027;BME280;6580;42.680;23.324;2022-12-31T13:42:33;96421.72;;;16.30;50.73
13027;BME280;6580;42.680;23.324;2022-12-31T13:45:03;96408.19;;;15.98;51.62
13027;BME280;6580;42.680;23.324;2022-12-31T13:47:40;96431.50;;;15.98;52.46
13027;BME280;6580;42.680;23.324;2022-12-31T13:50:18;96422.44;;;15.99;52.82
13027;BME280;6580;42.680;23.324;2022-12-31T13:52:52;96429.38;;;16.09;53.25
13027;BME280;6580;42.680;23.324;2022-12-31T13:55:28;96434.63;;;15.85;54.20
13027;BME280;6580;42.680;23.324;2022-12-31T13:58:03;96431.94;;;15.85;54.36
13027;BME280;6580;42.680;23.324;2022-12-31T14:00:48;96421.00;;;15.45;55.72
13027;BME280;6580;42.680;23.324;2022-12-31T14:03:20;96431.94;;;15.27;57.54
13027;BME280;6580;42.680;23.324;2022-12-31T14:05:54;96432.84;;;15.18;57.69